Wabasso, Florida
Current Conditions -  °F | °C
As of 11:53 PM on Sunday 21 Dec 2014 (Local Time) from KVRB Reporting Station
Scattered Clouds Scattered Clouds  
Wind Chill: 70°   Ceiling: Unl
Heat Index: 70°   Visibility: 10mi
Dew Point: 63°   Wind: 7mph
Humidity: 78%   Direction: 180°S
Pressure: 30.05"   Gusts: NA
Location:  27.75°N, 80.44°W
Report Text: KVRB 220453Z AUTO 18006KT 10SM SCT100 SCT120 21/17 A3005 RMK AO2 SLP173 T02110172 402670133
Loading
Personal Weather Stations






























Interactive Weather Map New forecast layout! Learn more

10-Day Weather Forecast

Advertisements
Track Severe Weather on mobile